createdAt,value
2019-03-21T00:01:03.889Z,99.90
2019-03-21T00:03:35.317Z,99.90
2019-03-21T00:06:08.695Z,99.90
2019-03-21T00:08:40.355Z,99.90
2019-03-21T00:12:17.764Z,99.90
2019-03-21T00:15:29.753Z,99.90
2019-03-21T00:18:08.947Z,99.90
2019-03-21T00:20:40.473Z,99.90
2019-03-21T00:23:12.563Z,99.90
2019-03-21T00:25:44.029Z,99.90
2019-03-21T00:28:15.426Z,99.90
2019-03-21T00:30:46.846Z,99.90
2019-03-21T00:33:18.388Z,99.90
2019-03-21T00:35:49.796Z,99.90
2019-03-21T00:38:21.312Z,99.90
2019-03-21T00:40:52.829Z,99.90
2019-03-21T00:43:24.615Z,99.90
2019-03-21T00:45:56.110Z,99.90
2019-03-21T00:48:27.499Z,99.90
2019-03-21T00:50:59.046Z,99.90
2019-03-21T00:53:30.436Z,99.90
2019-03-21T00:56:02.174Z,99.90
2019-03-21T00:58:33.602Z,99.90
2019-03-21T01:01:05.218Z,99.90
2019-03-21T01:03:36.624Z,99.90
2019-03-21T01:06:08.209Z,99.90
2019-03-21T01:08:39.661Z,99.90
2019-03-21T01:11:11.082Z,99.90
2019-03-21T01:13:42.731Z,99.90
2019-03-21T01:16:14.156Z,99.90
2019-03-21T01:18:45.860Z,1.00
2019-03-21T01:21:17.393Z,1.00
2019-03-21T01:23:49.190Z,1.00
2019-03-21T01:26:20.631Z,1.00
2019-03-21T01:28:52.127Z,1.00
2019-03-21T01:31:23.553Z,99.90
2019-03-21T01:33:54.953Z,1.00
2019-03-21T01:36:27.166Z,1.00
2019-03-21T01:38:58.608Z,1.00
2019-03-21T01:41:30.024Z,1.00
2019-03-21T01:44:01.539Z,78.80
2019-03-21T01:46:32.998Z,99.90
2019-03-21T01:49:04.465Z,99.90
2019-03-21T01:51:35.894Z,99.90
2019-03-21T01:54:07.879Z,99.90
2019-03-21T01:56:39.736Z,43.10
2019-03-21T01:59:11.564Z,1.00
2019-03-21T02:01:43.275Z,1.90
2019-03-21T02:04:14.654Z,46.60
2019-03-21T02:06:46.126Z,23.40
2019-03-21T02:09:17.606Z,91.70
2019-03-21T02:11:49.047Z,99.90
2019-03-21T02:14:20.523Z,99.90
2019-03-21T02:16:52.050Z,99.90
2019-03-21T02:19:23.550Z,1.00
2019-03-21T02:21:54.999Z,1.00
2019-03-21T02:24:26.476Z,1.00
2019-03-21T02:26:58.240Z,1.00
2019-03-21T02:29:29.660Z,1.00
2019-03-21T02:32:01.258Z,1.00
2019-03-21T02:34:32.767Z,1.00
2019-03-21T02:37:04.491Z,1.00
2019-03-21T02:39:36.164Z,1.00
2019-03-21T02:42:07.573Z,1.00
2019-03-21T02:44:39.041Z,1.00
2019-03-21T02:47:10.576Z,1.00
2019-03-21T02:49:42.022Z,1.00
2019-03-21T02:52:13.437Z,4.60
2019-03-21T02:54:45.247Z,99.90
2019-03-21T02:57:16.663Z,99.90
2019-03-21T02:59:48.074Z,99.90
2019-03-21T03:02:19.663Z,99.90
2019-03-21T03:04:51.068Z,99.90
2019-03-21T03:07:22.566Z,99.90
2019-03-21T03:09:54.047Z,99.90
2019-03-21T03:12:25.642Z,99.90
2019-03-21T03:14:57.057Z,99.90
2019-03-21T03:17:28.577Z,99.90
2019-03-21T03:20:00.002Z,99.90
2019-03-21T03:22:31.436Z,99.90
2019-03-21T03:25:03.101Z,1.00
2019-03-21T03:27:34.522Z,73.20
2019-03-21T03:30:06.561Z,1.00
2019-03-21T03:32:38.206Z,74.10
2019-03-21T03:35:11.883Z,99.90
2019-03-21T03:37:43.576Z,99.90
2019-03-21T03:40:19.483Z,1.00
2019-03-21T03:42:51.190Z,99.90
2019-03-21T03:45:36.578Z,1.00
2019-03-21T03:47:59.471Z,1.00
2019-03-21T03:50:30.977Z,1.00
2019-03-21T03:53:02.592Z,1.00
2019-03-21T03:55:34.424Z,98.80
2019-03-21T03:58:09.243Z,99.90
2019-03-21T04:00:41.072Z,1.00
2019-03-21T04:03:12.907Z,99.90
2019-03-21T04:05:44.379Z,99.90
2019-03-21T04:08:15.806Z,99.90
2019-03-21T04:10:48.198Z,99.90
2019-03-21T04:13:19.766Z,99.90
2019-03-21T04:15:53.564Z,72.40
2019-03-21T04:18:24.945Z,36.00
2019-03-21T04:20:57.735Z,99.90
2019-03-21T04:23:29.283Z,99.90
2019-03-21T04:26:06.122Z,1.00
2019-03-21T04:28:37.779Z,95.40
2019-03-21T04:31:09.541Z,99.90
2019-03-21T04:33:41.597Z,1.00
2019-03-21T04:36:14.041Z,99.90
2019-03-21T04:38:46.002Z,99.90
2019-03-21T04:41:17.578Z,99.90
2019-03-21T04:43:49.030Z,99.90
2019-03-21T04:46:20.459Z,99.90
2019-03-21T04:48:52.019Z,99.90
2019-03-21T04:51:23.453Z,99.90
2019-03-21T04:53:54.882Z,99.90
2019-03-21T04:56:26.798Z,99.90
2019-03-21T04:58:58.222Z,99.90
2019-03-21T05:01:29.636Z,99.90
2019-03-21T05:04:01.240Z,1.00
2019-03-21T05:06:32.960Z,99.90
2019-03-21T05:09:06.202Z,99.90
2019-03-21T05:11:38.005Z,1.00
2019-03-21T05:14:09.421Z,99.90
2019-03-21T05:16:40.819Z,1.00
2019-03-21T05:19:12.404Z,94.50
2019-03-21T05:21:44.233Z,33.20
2019-03-21T05:24:16.079Z,1.00
2019-03-21T05:26:49.020Z,99.90
2019-03-21T05:29:20.419Z,1.00
2019-03-21T05:31:51.835Z,99.90
2019-03-21T05:34:23.575Z,99.90
2019-03-21T05:36:55.010Z,1.00
2019-03-21T05:39:26.850Z,1.00
2019-03-21T05:41:58.427Z,1.00
2019-03-21T05:44:36.128Z,1.00
2019-03-21T05:47:07.750Z,99.90
2019-03-21T05:49:39.281Z,1.00
2019-03-21T05:52:12.236Z,1.00
2019-03-21T05:54:43.923Z,1.00
2019-03-21T05:57:15.640Z,1.00
2019-03-21T05:59:47.029Z,1.00
2019-03-21T06:02:19.562Z,1.00
2019-03-21T06:04:50.984Z,1.00
2019-03-21T06:07:44.871Z,99.90
2019-03-21T06:10:18.067Z,99.90
2019-03-21T06:12:49.618Z,99.90
2019-03-21T06:15:28.190Z,1.00
2019-03-21T06:18:53.055Z,1.00
2019-03-21T06:22:07.511Z,99.90
2019-03-21T06:25:42.640Z,99.90
2019-03-21T06:28:14.033Z,99.90
2019-03-21T06:30:45.439Z,99.90
2019-03-21T06:33:17.097Z,1.00
2019-03-21T06:35:48.516Z,1.00
2019-03-21T06:38:19.968Z,23.20
2019-03-21T06:40:51.533Z,99.90
2019-03-21T06:43:23.314Z,98.30
2019-03-21T06:45:55.073Z,1.00
2019-03-21T06:48:26.472Z,99.90
2019-03-21T06:50:58.079Z,99.90
2019-03-21T06:53:29.513Z,99.90
2019-03-21T06:56:01.320Z,1.00
2019-03-21T06:58:32.802Z,1.00
2019-03-21T07:01:04.343Z,1.00
2019-03-21T07:03:35.914Z,1.00
2019-03-21T07:06:07.329Z,99.90
2019-03-21T07:08:38.917Z,1.00
2019-03-21T07:11:10.354Z,99.90
2019-03-21T07:13:41.871Z,99.90
2019-03-21T07:16:13.380Z,30.60
2019-03-21T07:18:44.993Z,1.00
2019-03-21T07:21:16.404Z,99.90
2019-03-21T07:23:48.255Z,99.90
2019-03-21T07:26:20.078Z,99.90
2019-03-21T07:28:51.544Z,1.00
2019-03-21T07:31:23.197Z,99.90
2019-03-21T07:33:55.021Z,99.90
2019-03-21T07:36:26.468Z,1.00
2019-03-21T07:38:58.027Z,1.00
2019-03-21T07:41:29.437Z,1.00
2019-03-21T07:44:00.849Z,1.00
2019-03-21T07:46:32.429Z,1.00
2019-03-21T07:49:03.943Z,1.00
2019-03-21T07:51:35.358Z,1.00
2019-03-21T07:54:06.764Z,1.00
2019-03-21T07:56:38.317Z,99.90
2019-03-21T07:59:09.717Z,99.90
2019-03-21T08:01:41.145Z,99.90
2019-03-21T08:04:13.048Z,99.90
2019-03-21T08:06:44.463Z,99.90
2019-03-21T08:09:15.850Z,99.90
2019-03-21T08:11:47.772Z,99.90
2019-03-21T08:14:19.617Z,99.90
2019-03-21T08:16:51.034Z,99.90
2019-03-21T08:19:22.590Z,99.90
2019-03-21T08:21:54.343Z,99.90
2019-03-21T08:24:25.755Z,99.90
2019-03-21T08:26:57.350Z,99.90
2019-03-21T08:29:28.770Z,99.90
2019-03-21T08:32:00.552Z,99.90
2019-03-21T08:34:32.183Z,99.90
2019-03-21T08:37:03.592Z,99.90
2019-03-21T08:39:34.993Z,99.90
2019-03-21T08:42:06.566Z,99.90
2019-03-21T08:44:37.999Z,99.90
2019-03-21T08:47:10.104Z,99.90
2019-03-21T08:49:41.859Z,99.90
2019-03-21T08:52:13.852Z,99.90
2019-03-21T08:54:45.322Z,99.90
2019-03-21T08:57:17.140Z,99.90
2019-03-21T08:59:48.654Z,99.90
2019-03-21T09:02:20.068Z,99.90
2019-03-21T09:04:51.488Z,99.90
2019-03-21T09:07:22.993Z,99.90
2019-03-21T09:09:54.578Z,99.90
2019-03-21T09:12:26.345Z,99.90
2019-03-21T09:14:57.903Z,99.90
2019-03-21T09:17:29.402Z,99.90
2019-03-21T09:20:00.817Z,99.90
2019-03-21T09:22:32.422Z,99.90
2019-03-21T09:25:04.899Z,97.90
2019-03-21T09:27:36.425Z,92.10
2019-03-21T09:30:09.252Z,92.40
2019-03-21T09:32:40.669Z,92.10
2019-03-21T09:35:12.625Z,92.70
2019-03-21T09:37:44.202Z,92.10
2019-03-21T09:40:15.871Z,92.20
2019-03-21T09:42:47.263Z,92.40
2019-03-21T09:45:19.161Z,93.10
2019-03-21T09:47:51.357Z,92.70
2019-03-21T09:50:30.418Z,92.60
2019-03-21T09:53:02.010Z,93.10
2019-03-21T09:55:33.448Z,92.80
2019-03-21T09:58:04.856Z,92.80
2019-03-21T10:00:37.767Z,92.70
2019-03-21T10:03:09.623Z,92.80
2019-03-21T10:05:41.066Z,93.00
2019-03-21T10:08:12.663Z,92.80
2019-03-21T10:10:44.076Z,93.00
2019-03-21T10:13:15.853Z,93.10
2019-03-21T10:15:47.433Z,92.50
2019-03-21T10:18:19.044Z,92.60
2019-03-21T10:20:50.558Z,93.30
2019-03-21T10:23:22.180Z,91.10
2019-03-21T10:25:53.635Z,92.70
2019-03-21T10:28:25.055Z,89.30
2019-03-21T10:30:57.368Z,74.20
2019-03-21T10:33:28.829Z,74.80
2019-03-21T10:36:00.235Z,73.90
2019-03-21T10:38:31.700Z,74.90
2019-03-21T10:41:03.135Z,83.30
2019-03-21T10:43:34.545Z,70.10
2019-03-21T10:46:06.270Z,65.30
2019-03-21T10:48:37.947Z,70.40
2019-03-21T10:51:09.357Z,66.40
2019-03-21T10:53:40.920Z,64.80
2019-03-21T10:56:12.325Z,60.30
2019-03-21T10:58:44.116Z,61.20
2019-03-21T11:01:15.575Z,62.80
2019-03-21T11:03:47.083Z,62.00
2019-03-21T11:06:18.500Z,61.20
2019-03-21T11:08:51.391Z,58.00
2019-03-21T11:11:23.149Z,69.30
2019-03-21T11:13:54.537Z,61.60
2019-03-21T11:16:26.137Z,57.10
2019-03-21T11:18:57.908Z,53.40
2019-03-21T11:21:29.309Z,48.90
2019-03-21T11:24:00.862Z,50.90
2019-03-21T11:26:32.283Z,43.10
2019-03-21T11:29:04.009Z,42.30
2019-03-21T11:31:35.541Z,42.20
2019-03-21T11:34:07.136Z,41.30
2019-03-21T11:36:39.000Z,38.70
2019-03-21T11:39:11.136Z,35.80
2019-03-21T11:41:42.531Z,38.40
2019-03-21T11:44:14.003Z,40.30
2019-03-21T11:46:45.591Z,40.10
2019-03-21T11:49:17.013Z,42.50
2019-03-21T11:51:48.440Z,52.40
2019-03-21T11:54:19.905Z,37.10
2019-03-21T11:56:51.711Z,38.90
2019-03-21T11:59:23.400Z,42.20
2019-03-21T12:01:55.905Z,45.10
2019-03-21T12:04:27.397Z,44.40
2019-03-21T12:06:59.258Z,41.70
2019-03-21T12:09:30.771Z,37.10
2019-03-21T12:12:02.269Z,44.20
2019-03-21T12:14:34.006Z,43.00
2019-03-21T12:17:05.505Z,37.80
2019-03-21T12:19:36.906Z,34.30
2019-03-21T12:22:08.283Z,35.50
2019-03-21T12:24:39.793Z,38.10
2019-03-21T12:27:11.465Z,35.70
2019-03-21T12:29:43.123Z,33.50
2019-03-21T12:32:14.622Z,35.30
2019-03-21T12:34:46.505Z,36.80
2019-03-21T12:37:18.696Z,33.30
2019-03-21T12:39:50.227Z,30.70
2019-03-21T12:42:21.634Z,28.50
2019-03-21T12:44:53.020Z,28.60
2019-03-21T12:47:31.023Z,28.90
2019-03-21T12:49:57.776Z,30.00
2019-03-21T12:52:40.790Z,26.50
2019-03-21T12:55:02.242Z,27.70
2019-03-21T12:57:33.654Z,25.20
2019-03-21T13:00:06.872Z,27.40
2019-03-21T13:02:38.261Z,29.30
2019-03-21T13:05:12.033Z,27.30
2019-03-21T13:07:43.745Z,28.80
2019-03-21T13:10:15.161Z,27.40
2019-03-21T13:12:46.662Z,26.90
2019-03-21T13:15:29.254Z,28.50
2019-03-21T13:17:51.275Z,27.10
2019-03-21T13:20:22.757Z,26.80
2019-03-21T13:22:54.329Z,26.20
2019-03-21T13:25:25.771Z,27.70
2019-03-21T13:27:57.187Z,26.20
2019-03-21T13:30:28.760Z,29.50
2019-03-21T13:33:00.256Z,25.10
2019-03-21T13:35:33.109Z,27.60
2019-03-21T13:38:05.203Z,27.80
2019-03-21T13:40:37.006Z,27.10
2019-03-21T13:43:11.238Z,29.80
2019-03-21T13:45:42.263Z,27.50
2019-03-21T13:48:13.641Z,26.90
2019-03-21T13:50:45.173Z,25.60
2019-03-21T13:53:18.984Z,26.60
2019-03-21T13:55:49.977Z,25.30
2019-03-21T13:58:21.372Z,26.10
2019-03-21T14:00:53.358Z,26.60
2019-03-21T14:03:25.545Z,26.20
2019-03-21T14:05:57.030Z,28.50
2019-03-21T14:08:29.023Z,28.20
2019-03-21T14:11:00.428Z,24.20
2019-03-21T14:13:31.885Z,27.00
2019-03-21T14:16:03.476Z,28.80
2019-03-21T14:18:34.870Z,27.30
2019-03-21T14:21:06.235Z,27.80
2019-03-21T14:23:43.183Z,25.70
2019-03-21T14:26:11.344Z,26.80
2019-03-21T14:28:42.829Z,25.40
2019-03-21T14:31:14.502Z,28.80
2019-03-21T14:33:46.418Z,25.90
2019-03-21T14:36:17.795Z,25.60
2019-03-21T14:38:49.729Z,26.70
2019-03-21T14:41:21.112Z,26.90
2019-03-21T14:43:52.873Z,29.30
2019-03-21T14:46:24.438Z,26.60
2019-03-21T14:48:55.819Z,27.10
2019-03-21T14:51:27.244Z,25.20
2019-03-21T14:53:58.653Z,27.20
2019-03-21T14:56:30.146Z,27.30
2019-03-21T14:59:01.535Z,27.70
2019-03-21T15:01:32.948Z,28.10
2019-03-21T15:04:04.952Z,27.70
2019-03-21T15:06:36.348Z,27.00
2019-03-21T15:09:09.457Z,27.10
2019-03-21T15:11:41.205Z,25.90
2019-03-21T15:14:12.635Z,25.50
2019-03-21T15:16:44.362Z,27.70
2019-03-21T15:19:15.865Z,26.70
2019-03-21T15:21:47.657Z,28.80
2019-03-21T15:24:19.089Z,26.10
2019-03-21T15:26:51.279Z,24.50
2019-03-21T15:29:22.969Z,34.40
2019-03-21T15:31:54.370Z,25.40
2019-03-21T15:34:25.891Z,25.20
2019-03-21T15:36:57.597Z,25.90
2019-03-21T15:39:28.977Z,24.80
2019-03-21T15:42:00.567Z,25.70
2019-03-21T15:44:31.959Z,25.60
2019-03-21T15:47:03.780Z,26.80
2019-03-21T15:49:35.329Z,26.20
2019-03-21T15:52:06.743Z,26.20
2019-03-21T15:54:38.467Z,24.80
2019-03-21T15:57:09.995Z,24.20
2019-03-21T15:59:41.788Z,25.50
2019-03-21T16:02:13.206Z,26.20
2019-03-21T16:04:44.746Z,24.10
2019-03-21T16:07:16.126Z,25.00
2019-03-21T16:09:47.616Z,24.70
2019-03-21T16:12:19.171Z,23.80
2019-03-21T16:14:50.618Z,25.50
2019-03-21T16:17:22.018Z,23.30
2019-03-21T16:19:53.843Z,24.40
2019-03-21T16:22:25.323Z,25.10
2019-03-21T16:24:56.740Z,25.70
2019-03-21T16:27:28.358Z,26.60
2019-03-21T16:29:59.743Z,28.30
2019-03-21T16:32:31.164Z,38.60
2019-03-21T16:35:02.788Z,28.90
2019-03-21T16:37:34.311Z,35.40
2019-03-21T16:40:07.140Z,37.90
2019-03-21T16:42:38.606Z,42.00
2019-03-21T16:45:10.247Z,54.80
2019-03-21T16:47:41.756Z,45.90
2019-03-21T16:50:14.391Z,47.80
2019-03-21T16:52:46.154Z,50.20
2019-03-21T16:55:17.626Z,50.90
2019-03-21T16:57:49.296Z,53.00
2019-03-21T17:00:20.963Z,54.60
2019-03-21T17:02:52.778Z,55.00
2019-03-21T17:05:24.294Z,56.50
2019-03-21T17:07:56.075Z,57.70
2019-03-21T17:10:27.537Z,59.50
2019-03-21T17:13:04.463Z,60.60
2019-03-21T17:15:33.046Z,61.90
2019-03-21T17:18:04.468Z,63.80
2019-03-21T17:20:35.994Z,63.90
2019-03-21T17:23:07.753Z,64.00
2019-03-21T17:25:39.361Z,66.10
2019-03-21T17:28:10.860Z,66.80
2019-03-21T17:30:42.840Z,67.50
2019-03-21T17:33:14.344Z,69.20
2019-03-21T17:35:45.836Z,70.50
2019-03-21T17:38:17.419Z,70.60
2019-03-21T17:40:48.875Z,71.60
2019-03-21T17:43:20.360Z,72.20
2019-03-21T17:45:52.195Z,73.80
2019-03-21T17:48:23.727Z,88.90
2019-03-21T17:50:55.278Z,77.20
2019-03-21T17:53:26.783Z,78.70
2019-03-21T17:55:58.327Z,81.10
2019-03-21T17:58:30.249Z,85.10
2019-03-21T18:01:01.857Z,85.30
2019-03-21T18:03:33.294Z,87.20
2019-03-21T18:06:04.753Z,89.80
2019-03-21T18:08:36.287Z,92.10
2019-03-21T18:11:07.788Z,93.10
2019-03-21T18:13:39.209Z,93.30
2019-03-21T18:16:10.826Z,93.20
2019-03-21T18:18:42.292Z,93.80
2019-03-21T18:21:13.849Z,93.20
2019-03-21T18:23:45.335Z,93.30
2019-03-21T18:26:16.971Z,93.50
2019-03-21T18:28:48.814Z,93.40
2019-03-21T18:31:21.284Z,93.90
2019-03-21T18:33:52.727Z,93.30
2019-03-21T18:36:24.201Z,93.40
2019-03-21T18:38:59.325Z,93.40
2019-03-21T18:41:29.212Z,93.40
2019-03-21T18:44:00.752Z,93.90
2019-03-21T18:46:32.889Z,93.30
2019-03-21T18:49:04.443Z,93.30
2019-03-21T18:51:36.191Z,93.40
2019-03-21T18:54:07.958Z,93.60
2019-03-21T18:56:39.478Z,93.70
2019-03-21T18:59:10.903Z,93.70
2019-03-21T19:01:42.383Z,93.10
2019-03-21T19:04:13.834Z,93.20
2019-03-21T19:06:45.310Z,93.10
2019-03-21T19:09:16.732Z,93.00
2019-03-21T19:11:48.263Z,93.70
2019-03-21T19:14:19.759Z,93.20
2019-03-21T19:16:51.165Z,93.10
2019-03-21T19:19:22.965Z,93.50
2019-03-21T19:21:54.926Z,93.00
2019-03-21T19:24:26.366Z,93.50
2019-03-21T19:26:58.245Z,93.70
2019-03-21T19:29:29.853Z,93.80
2019-03-21T19:32:01.272Z,93.30
2019-03-21T19:34:32.793Z,92.90
2019-03-21T19:37:04.399Z,92.80
2019-03-21T19:39:35.999Z,93.50
2019-03-21T19:42:07.436Z,92.70
2019-03-21T19:44:38.897Z,92.80
2019-03-21T19:47:10.445Z,93.40
2019-03-21T19:49:41.930Z,92.40
2019-03-21T19:52:13.704Z,93.50
2019-03-21T19:54:45.345Z,92.80
2019-03-21T19:57:17.578Z,92.70
2019-03-21T19:59:49.256Z,92.90
2019-03-21T20:02:20.690Z,94.10
2019-03-21T20:04:52.431Z,92.60
2019-03-21T20:07:23.831Z,93.20
2019-03-21T20:09:55.453Z,92.60
2019-03-21T20:12:27.305Z,92.60
2019-03-21T20:14:58.995Z,92.60
2019-03-21T20:17:30.723Z,93.20
2019-03-21T20:20:02.496Z,92.50
2019-03-21T20:22:34.112Z,93.00
2019-03-21T20:25:06.225Z,92.40
2019-03-21T20:27:38.242Z,92.50
2019-03-21T20:30:12.683Z,93.00
2019-03-21T20:32:44.386Z,93.00
2019-03-21T20:35:16.115Z,93.60
2019-03-21T20:37:47.544Z,92.90
2019-03-21T20:40:19.654Z,93.00
2019-03-21T20:42:51.382Z,98.00
2019-03-21T20:45:23.319Z,92.80
2019-03-21T20:47:54.730Z,93.20
2019-03-21T20:50:26.303Z,93.00
2019-03-21T20:52:58.690Z,92.80
2019-03-21T20:55:30.158Z,92.80
2019-03-21T20:58:01.705Z,92.80
2019-03-21T21:00:33.147Z,93.40
2019-03-21T21:03:05.338Z,93.40
2019-03-21T21:05:36.786Z,92.90
2019-03-21T21:08:08.325Z,93.10
2019-03-21T21:10:39.764Z,93.30
2019-03-21T21:13:11.619Z,93.30
2019-03-21T21:15:43.385Z,92.60
2019-03-21T21:18:14.859Z,92.80
2019-03-21T21:20:46.401Z,92.80
2019-03-21T21:23:17.842Z,96.40
2019-03-21T21:25:49.317Z,99.70
2019-03-21T21:28:21.232Z,93.40
2019-03-21T21:30:52.665Z,92.60
2019-03-21T21:33:24.159Z,92.60
2019-03-21T21:35:56.353Z,92.60
2019-03-21T21:38:27.882Z,94.20
2019-03-21T21:40:59.323Z,92.80
2019-03-21T21:43:31.178Z,92.90
2019-03-21T21:46:02.968Z,93.20
2019-03-21T21:48:34.492Z,92.70
2019-03-21T21:51:06.273Z,93.10
2019-03-21T21:53:37.915Z,92.50
2019-03-21T21:56:17.465Z,93.00
2019-03-21T21:58:42.546Z,93.20
2019-03-21T22:01:14.322Z,92.60
2019-03-21T22:03:45.859Z,92.50
2019-03-21T22:06:17.412Z,93.00
2019-03-21T22:08:48.864Z,93.40
2019-03-21T22:11:21.041Z,96.30
2019-03-21T22:13:52.585Z,97.30
2019-03-21T22:16:24.365Z,99.90
2019-03-21T22:18:55.898Z,99.90
2019-03-21T22:21:27.424Z,99.90
2019-03-21T22:23:58.911Z,99.90
2019-03-21T22:26:30.343Z,99.90
2019-03-21T22:29:01.791Z,99.90
2019-03-21T22:31:33.243Z,99.90
2019-03-21T22:34:05.032Z,99.90
2019-03-21T22:36:48.685Z,99.90
2019-03-21T22:39:11.242Z,99.90
2019-03-21T22:41:42.742Z,99.90
2019-03-21T22:44:14.175Z,99.90
2019-03-21T22:46:45.580Z,99.90
2019-03-21T22:49:17.081Z,99.90
2019-03-21T22:51:48.485Z,99.90
2019-03-21T22:54:19.910Z,99.90
2019-03-21T22:56:51.435Z,99.90
2019-03-21T22:59:23.277Z,99.90
2019-03-21T23:01:54.701Z,99.90
2019-03-21T23:04:26.219Z,99.90
2019-03-21T23:06:57.710Z,99.90
2019-03-21T23:09:29.699Z,99.90
2019-03-21T23:12:01.138Z,99.90
2019-03-21T23:14:33.352Z,99.90
2019-03-21T23:17:04.805Z,99.90
2019-03-21T23:19:36.345Z,99.90
2019-03-21T23:22:07.739Z,99.90
2019-03-21T23:24:39.243Z,99.90
2019-03-21T23:27:10.669Z,99.90
2019-03-21T23:29:42.061Z,99.90
2019-03-21T23:32:13.608Z,99.90
2019-03-21T23:34:45.038Z,99.90
2019-03-21T23:37:16.813Z,99.90
2019-03-21T23:39:48.232Z,99.90
2019-03-21T23:42:19.645Z,99.90
2019-03-21T23:44:51.422Z,99.90
2019-03-21T23:47:22.931Z,99.90
2019-03-21T23:49:54.441Z,99.90
2019-03-21T23:52:26.365Z,99.90
2019-03-21T23:54:57.769Z,99.90
2019-03-21T23:57:29.613Z,99.90
